createdAt,value
2018-07-10T00:00:42.787Z,17.77
2018-07-10T00:03:25.582Z,17.80
2018-07-10T00:08:28.278Z,17.76
2018-07-10T00:11:16.658Z,17.65
2018-07-10T00:13:46.459Z,17.65
2018-07-10T00:16:16.319Z,17.62
2018-07-10T00:18:46.058Z,17.63
2018-07-10T00:21:16.063Z,17.63
2018-07-10T00:23:45.661Z,17.61
2018-07-10T00:26:15.193Z,17.61
2018-07-10T00:28:46.101Z,17.59
2018-07-10T00:31:16.793Z,17.57
2018-07-10T00:33:46.752Z,17.56
2018-07-10T00:36:16.333Z,17.58
2018-07-10T00:38:56.978Z,17.56
2018-07-10T00:41:30.534Z,17.57
2018-07-10T00:44:01.184Z,17.55
2018-07-10T00:46:31.741Z,17.54
2018-07-10T00:49:02.192Z,17.52
2018-07-10T00:51:33.310Z,17.54
2018-07-10T00:54:03.268Z,17.56
2018-07-10T00:56:32.827Z,17.53
2018-07-10T00:59:04.161Z,17.52
2018-07-10T01:01:34.775Z,17.54
2018-07-10T01:04:04.628Z,17.56
2018-07-10T01:06:34.346Z,17.57
2018-07-10T01:09:04.713Z,17.55
2018-07-10T01:11:34.564Z,17.56
2018-07-10T01:14:04.418Z,17.54
2018-07-10T01:16:36.898Z,17.52
2018-07-10T01:19:09.670Z,17.49
2018-07-10T01:21:40.549Z,17.49
2018-07-10T01:24:10.372Z,17.44
2018-07-10T01:26:41.906Z,17.46
2018-07-10T01:29:20.537Z,17.46
2018-07-10T01:31:51.521Z,17.42
2018-07-10T01:34:21.382Z,17.44
2018-07-10T01:36:51.393Z,17.40
2018-07-10T01:39:21.559Z,17.33
2018-07-10T01:41:51.370Z,17.33
2018-07-10T01:44:21.485Z,17.35
2018-07-10T01:46:51.033Z,17.30
2018-07-10T01:49:20.653Z,17.29
2018-07-10T01:51:50.547Z,17.28
2018-07-10T01:54:20.312Z,17.24
2018-07-10T01:56:50.227Z,17.21
2018-07-10T01:59:21.191Z,17.24
2018-07-10T02:01:50.993Z,17.25
2018-07-10T02:04:20.585Z,17.23
2018-07-10T02:06:50.215Z,17.18
2018-07-10T02:09:20.009Z,17.18
2018-07-10T02:11:49.805Z,17.20
2018-07-10T02:14:19.711Z,17.20
2018-07-10T02:16:49.413Z,17.14
2018-07-10T02:19:18.842Z,17.08
2018-07-10T02:21:48.521Z,17.11
2018-07-10T02:24:22.028Z,17.12
2018-07-10T02:26:52.040Z,17.05
2018-07-10T02:29:21.982Z,17.05
2018-07-10T02:31:51.962Z,17.07
2018-07-10T02:34:21.721Z,17.05
2018-07-10T02:36:51.898Z,17.05
2018-07-10T02:39:21.508Z,17.01
2018-07-10T02:41:51.398Z,17.05
2018-07-10T02:44:21.257Z,16.98
2018-07-10T02:46:50.989Z,16.93
2018-07-10T02:49:22.897Z,16.95
2018-07-10T02:52:07.705Z,16.89
2018-07-10T02:54:41.608Z,16.89
2018-07-10T02:57:12.165Z,16.89
2018-07-10T02:59:43.347Z,16.90
2018-07-10T03:02:22.660Z,16.89
2018-07-10T03:05:04.192Z,16.93
2018-07-10T03:07:36.833Z,16.91
2018-07-10T03:10:06.297Z,16.92
2018-07-10T03:12:37.786Z,16.97
2018-07-10T03:15:10.176Z,16.92
2018-07-10T03:17:40.104Z,16.95
2018-07-10T03:20:10.020Z,16.88
2018-07-10T03:22:39.750Z,16.89
2018-07-10T03:25:09.806Z,16.88
2018-07-10T03:27:39.280Z,16.87
2018-07-10T03:30:09.360Z,16.79
2018-07-10T03:32:39.203Z,16.82
2018-07-10T03:35:09.019Z,16.81
2018-07-10T03:37:38.623Z,16.84
2018-07-10T03:40:08.650Z,16.87
2018-07-10T03:42:38.598Z,16.87
2018-07-10T03:45:08.850Z,16.81
2018-07-10T03:47:39.353Z,16.80
2018-07-10T03:50:09.383Z,16.88
2018-07-10T03:52:39.098Z,16.88
2018-07-10T03:55:13.316Z,16.91
2018-07-10T03:57:42.881Z,16.85
2018-07-10T04:00:13.963Z,16.87
2018-07-10T04:02:46.021Z,16.89
2018-07-10T04:05:16.068Z,16.87
2018-07-10T04:07:46.607Z,16.87
2018-07-10T04:10:19.153Z,16.86
2018-07-10T04:12:50.049Z,16.93
2018-07-10T04:15:19.858Z,16.99
2018-07-10T04:17:58.443Z,16.96
2018-07-10T04:20:33.220Z,16.98
2018-07-10T04:23:03.289Z,16.99
2018-07-10T04:25:35.258Z,16.92
2018-07-10T04:28:12.926Z,16.95
2018-07-10T04:30:56.832Z,16.95
2018-07-10T04:33:26.560Z,16.94
2018-07-10T04:35:56.106Z,16.98
2018-07-10T04:38:28.696Z,17.02
2018-07-10T04:41:02.304Z,16.90
2018-07-10T04:43:33.294Z,16.96
2018-07-10T04:46:03.035Z,17.03
2018-07-10T04:48:48.628Z,17.02
2018-07-10T04:51:35.176Z,17.10
2018-07-10T04:54:29.799Z,17.11
2018-07-10T04:57:04.882Z,17.13
2018-07-10T04:59:35.925Z,17.01
2018-07-10T05:02:05.906Z,17.21
2018-07-10T05:04:35.737Z,17.24
2018-07-10T05:07:10.560Z,17.25
2018-07-10T05:09:41.796Z,17.34
2018-07-10T05:12:11.997Z,17.34
2018-07-10T05:14:45.120Z,17.40
2018-07-10T05:17:16.460Z,17.37
2018-07-10T05:19:47.698Z,17.41
2018-07-10T05:22:17.814Z,17.35
2018-07-10T05:24:47.525Z,17.39
2018-07-10T05:27:18.259Z,17.40
2018-07-10T05:29:48.093Z,17.44
2018-07-10T05:32:17.735Z,17.44
2018-07-10T05:34:48.162Z,17.48
2018-07-10T05:37:35.192Z,17.48
2018-07-10T05:40:09.198Z,17.45
2018-07-10T05:42:48.026Z,17.51
2018-07-10T05:45:21.136Z,17.53
2018-07-10T05:47:57.919Z,17.59
2018-07-10T05:50:31.948Z,17.64
2018-07-10T05:53:01.677Z,17.74
2018-07-10T05:55:32.218Z,17.09
2018-07-10T05:58:02.690Z,17.78
2018-07-10T06:00:32.669Z,17.93
2018-07-10T06:03:02.452Z,18.02
2018-07-10T06:05:32.037Z,18.04
2018-07-10T06:08:02.538Z,18.17
2018-07-10T06:10:32.201Z,18.27
2018-07-10T06:13:02.610Z,18.36
2018-07-10T06:15:32.356Z,18.41
2018-07-10T06:18:02.152Z,18.48
2018-07-10T06:20:32.024Z,18.57
2018-07-10T06:23:01.745Z,18.59
2018-07-10T06:25:36.068Z,18.67
2018-07-10T06:28:28.759Z,18.80
2018-07-10T06:31:02.874Z,18.85
2018-07-10T06:33:32.734Z,18.92
2018-07-10T06:36:14.033Z,18.93
2018-07-10T06:38:49.518Z,18.96
2018-07-10T06:41:19.116Z,19.07
2018-07-10T06:43:53.103Z,19.18
2018-07-10T06:46:29.129Z,19.28
2018-07-10T06:49:04.665Z,19.26
2018-07-10T06:51:34.600Z,19.25
2018-07-10T06:54:04.510Z,19.52
2018-07-10T06:56:34.296Z,19.57
2018-07-10T06:59:04.059Z,19.62
2018-07-10T07:01:33.616Z,19.66
2018-07-10T07:04:06.932Z,19.72
2018-07-10T07:06:36.949Z,19.81
2018-07-10T07:09:06.434Z,19.94
2018-07-10T07:11:36.033Z,20.03
2018-07-10T07:14:05.826Z,20.11
2018-07-10T07:16:35.306Z,20.23
2018-07-10T07:19:05.326Z,20.28
2018-07-10T07:21:35.317Z,20.46
2018-07-10T07:24:04.888Z,20.46
2018-07-10T07:26:34.886Z,20.52
2018-07-10T07:29:04.692Z,20.58
2018-07-10T07:31:34.395Z,20.52
2018-07-10T07:34:04.347Z,20.51
2018-07-10T07:36:34.027Z,20.61
2018-07-10T07:39:05.032Z,20.82
2018-07-10T07:41:34.829Z,22.28
2018-07-10T07:44:04.629Z,23.46
2018-07-10T07:46:33.921Z,24.00
2018-07-10T07:49:04.829Z,23.36
2018-07-10T07:51:34.433Z,23.09
2018-07-10T07:54:04.347Z,24.00
2018-07-10T07:56:33.828Z,24.64
2018-07-10T07:59:03.637Z,25.09
2018-07-10T08:01:33.759Z,25.96
2018-07-10T08:04:03.543Z,25.82
2018-07-10T08:06:33.080Z,25.65
2018-07-10T08:09:05.065Z,25.35
2018-07-10T08:11:34.673Z,24.70
2018-07-10T08:14:04.570Z,24.09
2018-07-10T08:16:34.195Z,23.58
2018-07-10T08:19:04.495Z,23.98
2018-07-10T08:21:34.370Z,23.81
2018-07-10T08:24:05.039Z,23.72
2018-07-10T08:26:35.217Z,23.60
2018-07-10T08:29:05.078Z,23.86
2018-07-10T08:31:34.808Z,23.91
2018-07-10T08:34:04.749Z,24.01
2018-07-10T08:36:34.328Z,23.87
2018-07-10T08:39:05.435Z,23.84
2018-07-10T08:41:45.601Z,23.85
2018-07-10T08:44:15.720Z,24.03
2018-07-10T08:46:48.446Z,24.00
2018-07-10T08:49:18.159Z,24.12
2018-07-10T08:51:51.216Z,24.26
2018-07-10T08:54:22.883Z,24.31
2018-07-10T08:56:52.664Z,24.34
2018-07-10T08:59:22.467Z,24.41
2018-07-10T09:01:52.175Z,24.29
2018-07-10T09:04:21.957Z,24.22
2018-07-10T09:06:51.547Z,24.56
2018-07-10T09:09:21.362Z,24.56
2018-07-10T09:11:51.088Z,24.57
2018-07-10T09:14:20.474Z,24.26
2018-07-10T09:16:50.290Z,24.14
2018-07-10T09:19:22.749Z,24.43
2018-07-10T09:21:55.037Z,24.66
2018-07-10T09:24:25.242Z,24.86
2018-07-10T09:26:55.239Z,24.74
2018-07-10T09:29:26.553Z,24.82
2018-07-10T09:31:56.814Z,24.71
2018-07-10T09:34:26.643Z,24.83
2018-07-10T09:36:56.328Z,24.63
2018-07-10T09:39:26.997Z,24.69
2018-07-10T09:41:57.301Z,24.44
2018-07-10T09:44:27.187Z,24.16
2018-07-10T09:46:56.717Z,24.19
2018-07-10T09:49:26.526Z,24.26
2018-07-10T09:51:56.288Z,24.21
2018-07-10T09:54:26.199Z,24.21
2018-07-10T09:56:56.057Z,24.22
2018-07-10T09:59:25.679Z,24.41
2018-07-10T10:02:00.714Z,24.68
2018-07-10T10:04:31.062Z,24.82
2018-07-10T10:07:00.881Z,24.75
2018-07-10T10:09:30.643Z,24.91
2018-07-10T10:12:00.089Z,24.92
2018-07-10T10:14:32.250Z,25.08
2018-07-10T10:17:01.919Z,24.82
2018-07-10T10:19:31.616Z,24.60
2018-07-10T10:22:01.451Z,24.64
2018-07-10T10:24:31.601Z,24.94
2018-07-10T10:27:01.224Z,25.22
2018-07-10T10:29:31.077Z,25.01
2018-07-10T10:32:04.180Z,25.01
2018-07-10T10:34:33.734Z,25.29
2018-07-10T10:37:04.077Z,25.51
2018-07-10T10:39:33.816Z,25.64
2018-07-10T10:42:03.953Z,25.21
2018-07-10T10:44:33.936Z,24.98
2018-07-10T10:47:03.734Z,24.80
2018-07-10T10:49:34.002Z,24.78
2018-07-10T10:52:03.892Z,24.74
2018-07-10T10:54:33.763Z,24.88
2018-07-10T10:57:03.761Z,24.76
2018-07-10T10:59:33.344Z,24.75
2018-07-10T11:02:03.195Z,24.74
2018-07-10T11:04:33.002Z,24.71
2018-07-10T11:07:02.792Z,24.69
2018-07-10T11:09:32.442Z,24.75
2018-07-10T11:12:02.048Z,24.78
2018-07-10T11:14:32.174Z,24.88
2018-07-10T11:17:02.010Z,24.86
2018-07-10T11:19:37.650Z,24.92
2018-07-10T11:22:12.910Z,24.83
2018-07-10T11:24:53.065Z,24.77
2018-07-10T11:28:02.153Z,24.64
2018-07-10T11:30:32.268Z,24.54
2018-07-10T11:33:03.045Z,24.55
2018-07-10T11:35:33.277Z,24.57
2018-07-10T11:38:05.828Z,24.60
2018-07-10T11:40:36.244Z,24.57
2018-07-10T11:43:09.155Z,24.48
2018-07-10T11:45:39.373Z,24.61
2018-07-10T11:48:09.424Z,24.72
2018-07-10T11:50:39.622Z,24.78
2018-07-10T11:53:09.231Z,24.86
2018-07-10T11:55:39.116Z,24.87
2018-07-10T11:58:09.325Z,24.91
2018-07-10T12:00:39.349Z,25.07
2018-07-10T12:03:09.320Z,24.82
2018-07-10T12:05:43.133Z,24.86
2018-07-10T12:08:12.760Z,24.95
2018-07-10T12:10:42.684Z,25.05
2018-07-10T12:13:12.594Z,25.14
2018-07-10T12:15:42.398Z,25.10
2018-07-10T12:18:15.174Z,25.23
2018-07-10T12:20:44.735Z,25.37
2018-07-10T12:23:14.502Z,25.40
2018-07-10T12:25:45.611Z,25.38
2018-07-10T12:28:15.919Z,25.38
2018-07-10T12:30:46.041Z,25.28
2018-07-10T12:33:15.561Z,25.22
2018-07-10T12:35:45.007Z,25.15
2018-07-10T12:38:15.145Z,25.07
2018-07-10T12:40:44.893Z,25.10
2018-07-10T12:43:14.710Z,25.18
2018-07-10T12:45:44.394Z,25.09
2018-07-10T12:48:14.235Z,25.08
2018-07-10T12:50:43.667Z,25.16
2018-07-10T12:53:13.905Z,25.06
2018-07-10T12:55:44.017Z,24.89
2018-07-10T12:58:14.013Z,24.96
2018-07-10T13:00:44.725Z,24.99
2018-07-10T13:03:15.865Z,25.02
2018-07-10T13:05:50.654Z,25.09
2018-07-10T13:08:20.509Z,25.20
2018-07-10T13:10:50.910Z,25.32
2018-07-10T13:13:20.779Z,25.47
2018-07-10T13:15:50.688Z,25.56
2018-07-10T13:18:24.999Z,25.58
2018-07-10T13:20:55.096Z,25.68
2018-07-10T13:23:25.355Z,25.71
2018-07-10T13:25:56.003Z,25.83
2018-07-10T13:28:26.152Z,25.83
2018-07-10T13:30:56.577Z,25.77
2018-07-10T13:33:27.212Z,25.83
2018-07-10T13:35:57.693Z,25.95
2018-07-10T13:38:27.535Z,26.13
2018-07-10T13:41:00.031Z,26.17
2018-07-10T13:43:29.927Z,26.32
2018-07-10T13:45:59.931Z,26.29
2018-07-10T13:48:29.977Z,26.29
2018-07-10T13:51:00.316Z,25.97
2018-07-10T13:53:30.178Z,26.15
2018-07-10T13:56:00.635Z,26.18
2018-07-10T13:58:33.241Z,26.45
2018-07-10T14:01:09.650Z,26.41
2018-07-10T14:03:39.288Z,26.27
2018-07-10T14:06:09.025Z,26.12
2018-07-10T14:08:38.715Z,26.24
2018-07-10T14:11:08.936Z,26.46
2018-07-10T14:13:38.491Z,26.68
2018-07-10T14:16:08.730Z,26.75
2018-07-10T14:18:38.416Z,26.78
2018-07-10T14:21:09.307Z,26.83
2018-07-10T14:23:39.264Z,26.63
2018-07-10T14:26:08.883Z,26.75
2018-07-10T14:28:38.595Z,26.71
2018-07-10T14:31:08.332Z,26.50
2018-07-10T14:33:38.365Z,26.64
2018-07-10T14:36:07.949Z,26.51
2018-07-10T14:38:40.021Z,26.47
2018-07-10T14:41:10.200Z,26.44
2018-07-10T14:43:42.384Z,26.36
2018-07-10T14:46:16.046Z,26.41
2018-07-10T14:48:49.546Z,26.53
2018-07-10T14:51:43.709Z,26.37
2018-07-10T14:54:13.626Z,26.32
2018-07-10T14:56:43.478Z,26.36
2018-07-10T14:59:13.051Z,26.44
2018-07-10T15:01:43.332Z,26.60
2018-07-10T15:04:13.136Z,26.57
2018-07-10T15:06:42.701Z,26.55
2018-07-10T15:09:12.541Z,26.52
2018-07-10T15:11:43.449Z,26.51
2018-07-10T15:14:13.093Z,26.52
2018-07-10T15:16:47.903Z,26.58
2018-07-10T15:19:18.112Z,26.41
2018-07-10T15:21:47.513Z,26.39
2018-07-10T15:24:17.369Z,26.42
2018-07-10T15:26:47.427Z,26.39
2018-07-10T15:29:22.458Z,26.35
2018-07-10T15:31:52.858Z,26.48
2018-07-10T15:34:22.670Z,26.28
2018-07-10T15:36:52.431Z,26.28
2018-07-10T15:39:22.842Z,26.34
2018-07-10T15:41:53.570Z,26.42
2018-07-10T15:44:23.588Z,26.43
2018-07-10T15:46:53.406Z,26.43
2018-07-10T15:49:23.106Z,26.29
2018-07-10T15:51:52.616Z,26.35
2018-07-10T15:54:22.488Z,26.30
2018-07-10T15:56:52.466Z,26.27
2018-07-10T15:59:22.474Z,26.28
2018-07-10T16:01:52.610Z,26.10
2018-07-10T16:04:22.469Z,26.13
2018-07-10T16:06:52.619Z,26.14
2018-07-10T16:09:22.847Z,26.20
2018-07-10T16:11:56.173Z,26.32
2018-07-10T16:14:26.342Z,26.36
2018-07-10T16:16:56.624Z,26.38
2018-07-10T16:19:34.528Z,26.25
2018-07-10T16:22:09.073Z,26.14
2018-07-10T16:24:43.638Z,26.25
2018-07-10T16:27:13.655Z,26.18
2018-07-10T16:29:43.440Z,26.34
2018-07-10T16:32:13.620Z,26.36
2018-07-10T16:34:43.669Z,26.28
2018-07-10T16:37:14.383Z,26.26
2018-07-10T16:39:44.535Z,26.28
2018-07-10T16:42:19.609Z,26.36
2018-07-10T16:44:49.500Z,26.19
2018-07-10T16:47:27.220Z,26.18
2018-07-10T16:50:00.175Z,26.22
2018-07-10T16:52:35.214Z,26.31
2018-07-10T16:55:05.193Z,26.32
2018-07-10T16:57:35.030Z,26.22
2018-07-10T17:00:04.752Z,26.25
2018-07-10T17:02:34.641Z,26.30
2018-07-10T17:05:04.614Z,26.28
2018-07-10T17:07:34.040Z,26.26
2018-07-10T17:10:03.850Z,26.25
2018-07-10T17:12:34.163Z,26.24
2018-07-10T17:15:03.752Z,26.19
2018-07-10T17:17:33.731Z,26.14
2018-07-10T17:20:03.415Z,26.00
2018-07-10T17:22:33.018Z,26.02
2018-07-10T17:25:02.930Z,26.11
2018-07-10T17:27:33.737Z,26.15
2018-07-10T17:30:05.050Z,26.10
2018-07-10T17:32:36.290Z,26.03
2018-07-10T17:35:06.994Z,26.08
2018-07-10T17:37:44.398Z,26.11
2018-07-10T17:40:14.626Z,26.08
2018-07-10T17:42:46.109Z,26.13
2018-07-10T17:45:25.089Z,26.10
2018-07-10T17:47:54.939Z,26.00
2018-07-10T17:50:24.515Z,25.95
2018-07-10T17:52:54.412Z,25.93
2018-07-10T17:55:24.276Z,25.92
2018-07-10T17:57:58.436Z,25.93
2018-07-10T18:00:28.075Z,25.88
2018-07-10T18:02:58.244Z,25.81
2018-07-10T18:05:28.013Z,25.82
2018-07-10T18:07:58.641Z,25.76
2018-07-10T18:10:28.530Z,25.84
2018-07-10T18:12:58.385Z,25.94
2018-07-10T18:15:28.040Z,25.85
2018-07-10T18:17:57.946Z,25.93
2018-07-10T18:20:28.000Z,25.95
2018-07-10T18:22:58.260Z,25.86
2018-07-10T18:25:28.161Z,25.92
2018-07-10T18:27:58.169Z,25.88
2018-07-10T18:30:28.316Z,25.86
2018-07-10T18:32:58.365Z,25.81
2018-07-10T18:35:28.421Z,25.80
2018-07-10T18:37:58.345Z,25.87
2018-07-10T18:40:28.319Z,25.95
2018-07-10T18:42:58.254Z,25.93
2018-07-10T18:45:28.219Z,25.88
2018-07-10T18:47:58.295Z,25.92
2018-07-10T18:50:28.406Z,25.94
2018-07-10T18:52:58.540Z,25.96
2018-07-10T18:55:28.720Z,25.88
2018-07-10T18:58:11.025Z,25.81
2018-07-10T19:00:53.769Z,25.86
2018-07-10T19:03:24.203Z,25.88
2018-07-10T19:05:56.694Z,25.91
2018-07-10T19:08:26.924Z,25.92
2018-07-10T19:10:57.279Z,25.71
2018-07-10T19:13:27.590Z,25.50
2018-07-10T19:15:57.435Z,25.48
2018-07-10T19:18:27.278Z,25.51
2018-07-10T19:21:29.457Z,25.52
2018-07-10T19:24:04.347Z,25.49
2018-07-10T19:26:35.187Z,25.44
2018-07-10T19:29:14.185Z,25.42
2018-07-10T19:31:44.167Z,25.38
2018-07-10T19:34:13.830Z,25.36
2018-07-10T19:36:43.507Z,25.34
2018-07-10T19:39:13.301Z,25.33
2018-07-10T19:41:43.250Z,25.27
2018-07-10T19:44:13.409Z,25.13
2018-07-10T19:46:43.245Z,24.84
2018-07-10T19:49:12.907Z,24.54
2018-07-10T19:51:43.344Z,24.37
2018-07-10T19:54:16.765Z,24.21
2018-07-10T19:56:46.671Z,24.12
2018-07-10T19:59:17.927Z,24.01
2018-07-10T20:01:51.320Z,23.89
2018-07-10T20:04:23.667Z,23.80
2018-07-10T20:07:07.067Z,23.73
2018-07-10T20:09:48.040Z,23.58
2018-07-10T20:12:19.210Z,23.56
2018-07-10T20:14:55.197Z,23.47
2018-07-10T20:17:27.556Z,23.43
2018-07-10T20:20:18.787Z,23.35
2018-07-10T20:23:56.342Z,23.28
2018-07-10T20:27:42.381Z,23.14
2018-07-10T20:31:26.379Z,23.02
2018-07-10T20:35:03.320Z,22.97
2018-07-10T20:37:33.800Z,22.96
2018-07-10T20:40:04.154Z,22.97
2018-07-10T20:42:39.294Z,22.98
2018-07-10T20:45:09.651Z,22.98
2018-07-10T20:47:49.567Z,22.95
2018-07-10T20:50:43.357Z,22.91
2018-07-10T20:53:21.850Z,22.88
2018-07-10T20:55:55.267Z,22.87
2018-07-10T20:58:26.338Z,22.86
2018-07-10T21:03:53.895Z,22.85
2018-07-10T21:06:37.664Z,22.84
2018-07-10T21:09:11.693Z,22.80
2018-07-10T21:11:50.135Z,22.76
2018-07-10T21:14:27.224Z,22.75
2018-07-10T21:17:05.429Z,22.74
2018-07-10T21:21:51.495Z,22.71
2018-07-10T21:24:27.771Z,22.67
2018-07-10T21:27:06.216Z,22.67
2018-07-10T21:30:48.867Z,22.67
2018-07-10T21:33:26.799Z,22.59
2018-07-10T21:36:02.958Z,22.62
2018-07-10T21:38:43.319Z,22.63
2018-07-10T21:41:50.248Z,22.61
2018-07-10T21:44:41.278Z,22.60
2018-07-10T21:47:18.422Z,22.60
2018-07-10T21:49:55.241Z,22.57
2018-07-10T21:52:25.872Z,22.61
2018-07-10T21:54:55.944Z,22.61
2018-07-10T21:57:42.481Z,22.56
2018-07-10T22:00:12.409Z,22.50
2018-07-10T22:02:42.351Z,22.47
2018-07-10T22:05:12.269Z,22.48
2018-07-10T22:07:42.769Z,22.52
2018-07-10T22:10:12.387Z,22.53
2018-07-10T22:12:44.451Z,22.49
2018-07-10T22:15:14.092Z,22.47
2018-07-10T22:17:44.528Z,22.45
2018-07-10T22:20:14.239Z,22.16
2018-07-10T22:22:44.413Z,22.43
2018-07-10T22:25:13.934Z,22.37
2018-07-10T22:27:44.153Z,22.32
2018-07-10T22:30:21.889Z,22.28
2018-07-10T22:32:56.403Z,22.29
2018-07-10T22:35:26.137Z,22.30
2018-07-10T22:37:56.222Z,22.24
2018-07-10T22:40:26.017Z,22.25
2018-07-10T22:42:56.254Z,22.28
2018-07-10T22:45:26.048Z,22.26
2018-07-10T22:47:56.111Z,22.18
2018-07-10T22:50:25.936Z,22.11
2018-07-10T22:52:59.560Z,22.02
2018-07-10T22:55:32.230Z,22.02
2018-07-10T22:58:06.247Z,21.98
2018-07-10T23:00:38.157Z,21.95
2018-07-10T23:03:20.892Z,21.84
2018-07-10T23:05:51.781Z,21.74
2018-07-10T23:08:26.421Z,21.71
2018-07-10T23:10:56.113Z,21.69
2018-07-10T23:13:26.205Z,21.69
2018-07-10T23:15:56.389Z,21.66
2018-07-10T23:18:26.607Z,21.67
2018-07-10T23:20:56.102Z,21.67
2018-07-10T23:23:26.440Z,21.56
2018-07-10T23:25:56.480Z,21.49
2018-07-10T23:28:27.874Z,21.47
2018-07-10T23:30:57.532Z,21.45
2018-07-10T23:33:27.556Z,21.40
2018-07-10T23:35:59.782Z,21.38
2018-07-10T23:38:39.160Z,21.32
2018-07-10T23:41:19.169Z,21.30
2018-07-10T23:43:50.095Z,21.29
2018-07-10T23:46:32.098Z,21.26
2018-07-10T23:49:15.127Z,21.22
2018-07-10T23:51:55.687Z,21.13
2018-07-10T23:54:26.188Z,21.08
2018-07-10T23:56:55.858Z,21.05
2018-07-10T23:59:25.966Z,20.77
